createdAt,value
2022-11-07T00:00:25.982Z,11.49
2022-11-07T00:02:52.454Z,11.59
2022-11-07T00:05:18.862Z,11.71
2022-11-07T00:07:45.304Z,11.78
2022-11-07T00:10:11.644Z,11.81
2022-11-07T00:12:38.157Z,11.82
2022-11-07T00:15:06.237Z,11.95
2022-11-07T00:17:32.626Z,11.98
2022-11-07T00:19:59.085Z,12.03
2022-11-07T00:22:25.630Z,12.00
2022-11-07T00:24:52.259Z,12.04
2022-11-07T00:27:19.778Z,12.02
2022-11-07T00:29:46.352Z,12.05
2022-11-07T00:32:12.692Z,12.10
2022-11-07T00:34:39.059Z,12.09
2022-11-07T00:37:05.495Z,12.16
2022-11-07T00:39:32.104Z,12.22
2022-11-07T00:41:58.551Z,12.16
2022-11-07T00:44:24.946Z,12.25
2022-11-07T00:46:51.323Z,12.29
2022-11-07T00:49:17.692Z,12.29
2022-11-07T00:51:44.105Z,12.30
2022-11-07T00:54:10.726Z,12.36
2022-11-07T00:56:37.298Z,12.33
2022-11-07T00:59:03.811Z,12.41
2022-11-07T01:01:33.323Z,12.31
2022-11-07T01:04:18.352Z,12.45
2022-11-07T01:06:46.623Z,12.46
2022-11-07T01:09:21.256Z,12.42
2022-11-07T01:11:48.703Z,12.40
2022-11-07T01:14:18.647Z,12.47
2022-11-07T01:16:45.057Z,12.49
2022-11-07T01:19:11.615Z,12.49
2022-11-07T01:21:39.830Z,12.53
2022-11-07T01:24:08.340Z,12.53
2022-11-07T01:26:36.810Z,12.50
2022-11-07T01:29:03.733Z,12.43
2022-11-07T01:31:31.782Z,12.55
2022-11-07T01:33:59.630Z,12.62
2022-11-07T01:36:26.972Z,12.57
2022-11-07T01:38:53.829Z,12.43
2022-11-07T01:41:25.400Z,12.56
2022-11-07T01:43:54.270Z,12.66
2022-11-07T01:46:22.378Z,12.63
2022-11-07T01:49:06.598Z,12.71
2022-11-07T01:51:39.193Z,12.62
2022-11-07T01:54:08.079Z,12.59
2022-11-07T01:56:39.194Z,12.65
2022-11-07T01:59:06.814Z,12.63
2022-11-07T02:01:33.504Z,12.67
2022-11-07T02:04:00.756Z,12.67
2022-11-07T02:06:37.493Z,12.72
2022-11-07T02:09:04.380Z,12.67
2022-11-07T02:11:31.506Z,12.58
2022-11-07T02:13:57.932Z,12.71
2022-11-07T02:16:24.421Z,12.75
2022-11-07T02:18:50.926Z,12.76
2022-11-07T02:21:47.618Z,12.80
2022-11-07T02:24:27.005Z,12.73
2022-11-07T02:26:55.979Z,12.80
2022-11-07T02:29:24.524Z,12.77
2022-11-07T02:32:05.774Z,12.88
2022-11-07T02:34:32.174Z,12.84
2022-11-07T02:37:00.771Z,12.87
2022-11-07T02:39:27.331Z,12.88
2022-11-07T02:41:55.651Z,12.94
2022-11-07T02:44:22.479Z,12.90
2022-11-07T02:46:49.509Z,12.92
2022-11-07T02:49:15.926Z,13.01
2022-11-07T02:51:42.317Z,12.93
2022-11-07T02:54:08.807Z,13.04
2022-11-07T02:56:35.436Z,13.10
2022-11-07T02:59:02.172Z,13.13
2022-11-07T03:01:28.979Z,13.13
2022-11-07T03:03:55.444Z,13.17
2022-11-07T03:06:24.643Z,13.19
2022-11-07T03:08:51.668Z,13.17
2022-11-07T03:11:21.243Z,13.19
2022-11-07T03:13:49.836Z,13.24
2022-11-07T03:16:18.406Z,13.27
2022-11-07T03:18:44.805Z,13.30
2022-11-07T03:21:11.171Z,13.32
2022-11-07T03:23:37.689Z,13.23
2022-11-07T03:26:04.733Z,13.32
2022-11-07T03:28:31.603Z,13.34
2022-11-07T03:31:02.169Z,13.34
2022-11-07T03:33:29.893Z,13.28
2022-11-07T03:35:56.517Z,13.31
2022-11-07T03:38:22.997Z,13.36
2022-11-07T03:40:49.455Z,13.28
2022-11-07T03:43:16.344Z,13.29
2022-11-07T03:45:43.115Z,13.32
2022-11-07T03:48:09.462Z,13.29
2022-11-07T03:50:35.906Z,13.32
2022-11-07T03:53:02.302Z,13.30
2022-11-07T03:55:28.643Z,13.32
2022-11-07T03:57:54.999Z,13.35
2022-11-07T04:00:21.844Z,13.33
2022-11-07T04:02:48.282Z,13.45
2022-11-07T04:05:14.803Z,13.42
2022-11-07T04:07:41.165Z,13.46
2022-11-07T04:10:07.739Z,13.45
2022-11-07T04:12:52.797Z,13.47
2022-11-07T04:15:37.658Z,13.46
2022-11-07T04:18:04.064Z,13.51
2022-11-07T04:20:30.476Z,13.57
2022-11-07T04:22:56.917Z,13.54
2022-11-07T04:25:43.424Z,13.58
2022-11-07T04:28:09.777Z,13.57
2022-11-07T04:30:36.173Z,13.56
2022-11-07T04:33:03.207Z,13.61
2022-11-07T04:35:32.376Z,13.56
2022-11-07T04:38:00.109Z,13.60
2022-11-07T04:40:27.922Z,13.61
2022-11-07T04:42:54.774Z,13.55
2022-11-07T04:45:21.152Z,13.46
2022-11-07T04:47:47.763Z,13.44
2022-11-07T04:50:17.238Z,13.40
2022-11-07T04:52:44.444Z,13.40
2022-11-07T04:55:18.836Z,13.42
2022-11-07T04:57:45.594Z,13.33
2022-11-07T05:00:12.572Z,13.28
2022-11-07T05:02:39.016Z,13.26
2022-11-07T05:05:06.098Z,13.29
2022-11-07T05:07:32.431Z,13.38
2022-11-07T05:09:58.817Z,13.35
2022-11-07T05:12:25.205Z,13.40
2022-11-07T05:14:51.593Z,13.35
2022-11-07T05:17:18.093Z,13.46
2022-11-07T05:19:44.715Z,13.49
2022-11-07T05:22:30.157Z,13.46
2022-11-07T05:24:56.537Z,13.45
2022-11-07T05:27:24.046Z,13.42
2022-11-07T05:29:50.734Z,13.44
2022-11-07T05:32:17.298Z,13.41
2022-11-07T05:34:43.756Z,13.38
2022-11-07T05:37:20.707Z,13.41
2022-11-07T05:39:49.925Z,13.32
2022-11-07T05:42:20.322Z,13.31
2022-11-07T05:44:46.834Z,13.14
2022-11-07T05:47:13.199Z,13.21
2022-11-07T05:49:39.702Z,13.18
2022-11-07T05:52:06.117Z,13.13
2022-11-07T05:54:33.168Z,13.12
2022-11-07T05:56:59.529Z,13.07
2022-11-07T05:59:25.916Z,13.08
2022-11-07T06:01:53.491Z,13.02
2022-11-07T06:04:20.067Z,12.94
2022-11-07T06:06:46.503Z,13.01
2022-11-07T06:09:12.905Z,12.90
2022-11-07T06:11:39.387Z,12.98
2022-11-07T06:14:05.961Z,12.92
2022-11-07T06:16:32.536Z,12.95
2022-11-07T06:18:58.884Z,12.97
2022-11-07T06:21:25.325Z,12.95
2022-11-07T06:23:51.909Z,12.86
2022-11-07T06:26:18.283Z,12.92
2022-11-07T06:28:44.741Z,12.96
2022-11-07T06:31:11.401Z,12.92
2022-11-07T06:33:37.827Z,12.95
2022-11-07T06:36:06.624Z,12.84
2022-11-07T06:38:33.265Z,12.94
2022-11-07T06:41:11.505Z,12.93
2022-11-07T06:43:38.686Z,12.90
2022-11-07T06:46:08.409Z,12.87
2022-11-07T06:48:34.876Z,12.79
2022-11-07T06:51:03.494Z,12.81
2022-11-07T06:53:29.981Z,12.86
2022-11-07T06:55:59.813Z,12.80
2022-11-07T06:58:26.333Z,12.91
2022-11-07T07:00:53.554Z,12.78
2022-11-07T07:03:20.040Z,12.88
2022-11-07T07:05:46.440Z,12.93
2022-11-07T07:08:14.072Z,12.95
2022-11-07T07:10:43.619Z,12.94
2022-11-07T07:13:10.423Z,13.11
2022-11-07T07:15:49.918Z,13.08
2022-11-07T07:18:16.966Z,13.31
2022-11-07T07:20:43.351Z,13.28
2022-11-07T07:23:09.755Z,13.29
2022-11-07T07:25:36.150Z,13.27
2022-11-07T07:28:02.518Z,13.32
2022-11-07T07:30:28.879Z,13.38
2022-11-07T07:32:55.235Z,13.43
2022-11-07T07:35:22.218Z,13.50
2022-11-07T07:37:52.397Z,13.59
2022-11-07T07:40:20.081Z,13.60
2022-11-07T07:42:47.034Z,13.64
2022-11-07T07:45:15.491Z,13.60
2022-11-07T07:47:42.338Z,13.60
2022-11-07T07:50:10.855Z,13.60
2022-11-07T07:52:37.648Z,13.63
2022-11-07T07:55:04.924Z,13.58
2022-11-07T07:57:31.279Z,13.56
2022-11-07T07:59:57.671Z,13.76
2022-11-07T08:02:24.075Z,13.80
2022-11-07T08:04:50.525Z,13.82
2022-11-07T08:07:17.116Z,13.84
2022-11-07T08:09:43.485Z,13.86
2022-11-07T08:12:09.838Z,13.89
2022-11-07T08:14:36.685Z,13.93
2022-11-07T08:17:03.593Z,14.07
2022-11-07T08:19:29.964Z,14.11
2022-11-07T08:21:56.363Z,14.22
2022-11-07T08:24:22.914Z,14.24
2022-11-07T08:26:49.379Z,14.30
2022-11-07T08:29:15.897Z,14.25
2022-11-07T08:31:42.556Z,14.32
2022-11-07T08:34:08.974Z,14.36
2022-11-07T08:36:35.655Z,14.42
2022-11-07T08:39:02.187Z,14.41
2022-11-07T08:41:28.659Z,14.47
2022-11-07T08:43:55.017Z,14.57
2022-11-07T08:46:21.368Z,14.58
2022-11-07T08:48:47.853Z,14.64
2022-11-07T08:51:14.223Z,14.66
2022-11-07T08:53:40.597Z,14.68
2022-11-07T08:56:09.155Z,14.75
2022-11-07T08:58:36.820Z,14.85
2022-11-07T09:01:10.272Z,14.86
2022-11-07T09:03:45.962Z,14.85
2022-11-07T09:06:12.984Z,14.92
2022-11-07T09:08:40.844Z,15.02
2022-11-07T09:11:07.507Z,15.07
2022-11-07T09:13:34.499Z,15.25
2022-11-07T09:16:03.228Z,15.26
2022-11-07T09:18:30.029Z,15.39
2022-11-07T09:20:57.712Z,15.58
2022-11-07T09:23:24.321Z,15.70
2022-11-07T09:25:50.814Z,15.67
2022-11-07T09:28:17.227Z,15.69
2022-11-07T09:30:43.681Z,15.67
2022-11-07T09:33:10.083Z,15.63
2022-11-07T09:35:36.456Z,15.75
2022-11-07T09:38:02.909Z,15.71
2022-11-07T09:40:43.535Z,15.89
2022-11-07T09:43:42.682Z,15.98
2022-11-07T09:46:27.473Z,16.16
2022-11-07T09:49:14.466Z,16.38
2022-11-07T09:51:45.636Z,16.52
2022-11-07T09:54:20.488Z,16.60
2022-11-07T09:56:47.004Z,16.60
2022-11-07T09:59:25.741Z,16.69
2022-11-07T10:01:52.475Z,16.77
2022-11-07T10:04:26.102Z,16.87
2022-11-07T10:07:09.163Z,16.93
2022-11-07T10:09:58.698Z,17.17
2022-11-07T10:12:45.806Z,17.22
2022-11-07T10:15:26.921Z,17.20
2022-11-07T10:17:58.394Z,17.08
2022-11-07T10:20:33.218Z,16.95
2022-11-07T10:23:22.669Z,16.81
2022-11-07T10:26:10.426Z,16.66
2022-11-07T10:28:52.749Z,16.47
2022-11-07T10:31:19.566Z,16.31
2022-11-07T10:33:56.741Z,16.21
2022-11-07T10:36:31.338Z,16.11
2022-11-07T10:38:58.091Z,16.12
2022-11-07T10:41:31.616Z,16.11
2022-11-07T10:44:02.345Z,16.04
2022-11-07T10:46:41.813Z,16.12
2022-11-07T10:49:18.870Z,16.22
2022-11-07T10:51:45.360Z,16.27
2022-11-07T10:54:31.344Z,16.41
2022-11-07T10:57:05.564Z,16.38
2022-11-07T10:59:36.579Z,16.43
2022-11-07T11:02:19.698Z,16.47
2022-11-07T11:04:54.973Z,16.54
2022-11-07T11:07:28.507Z,16.58
2022-11-07T11:09:57.849Z,16.64
2022-11-07T11:12:32.233Z,16.68
2022-11-07T11:15:05.009Z,16.66
2022-11-07T11:17:31.582Z,16.69
2022-11-07T11:19:58.060Z,16.62
2022-11-07T11:22:25.844Z,16.67
2022-11-07T11:25:14.868Z,16.76
2022-11-07T11:27:41.654Z,16.61
2022-11-07T11:30:15.283Z,16.55
2022-11-07T11:33:06.014Z,16.51
2022-11-07T11:35:41.877Z,16.54
2022-11-07T11:38:27.639Z,16.43
2022-11-07T11:41:10.574Z,16.34
2022-11-07T11:43:46.551Z,16.35
2022-11-07T11:46:29.975Z,16.37
2022-11-07T11:49:09.562Z,16.30
2022-11-07T11:51:43.220Z,16.34
2022-11-07T11:54:12.237Z,16.34
2022-11-07T11:56:51.306Z,16.40
2022-11-07T11:59:52.327Z,16.37
2022-11-07T12:02:24.625Z,16.48
2022-11-07T12:05:09.930Z,16.44
2022-11-07T12:08:04.256Z,16.43
2022-11-07T12:10:55.038Z,16.38
2022-11-07T12:13:30.929Z,16.27
2022-11-07T12:16:08.548Z,16.26
2022-11-07T12:19:10.380Z,16.23
2022-11-07T12:21:48.657Z,16.19
2022-11-07T12:24:39.527Z,16.17
2022-11-07T12:27:24.116Z,16.03
2022-11-07T12:30:10.191Z,16.10
2022-11-07T12:33:02.699Z,16.13
2022-11-07T12:35:54.829Z,16.14
2022-11-07T12:38:55.007Z,16.18
2022-11-07T12:41:44.942Z,16.05
2022-11-07T12:44:17.041Z,15.98
2022-11-07T12:46:58.347Z,15.98
2022-11-07T12:49:43.068Z,15.89
2022-11-07T12:52:24.953Z,15.98
2022-11-07T12:55:00.323Z,15.90
2022-11-07T12:57:36.566Z,15.96
2022-11-07T13:00:29.685Z,16.02
2022-11-07T13:03:05.609Z,16.03
2022-11-07T13:05:46.936Z,16.07
2022-11-07T13:08:40.681Z,16.15
2022-11-07T13:11:25.729Z,16.14
2022-11-07T13:14:01.289Z,16.16
2022-11-07T13:16:30.337Z,16.20
2022-11-07T13:19:12.064Z,16.30
2022-11-07T13:21:42.832Z,16.33
2022-11-07T13:24:21.671Z,16.40
2022-11-07T13:26:48.546Z,16.45
2022-11-07T13:29:33.398Z,16.42
2022-11-07T13:32:15.982Z,16.46
2022-11-07T13:34:50.823Z,16.40
2022-11-07T13:37:21.539Z,16.31
2022-11-07T13:39:51.692Z,16.18
2022-11-07T13:42:18.716Z,16.15
2022-11-07T13:44:53.632Z,15.92
2022-11-07T13:47:32.360Z,15.79
2022-11-07T13:50:07.757Z,15.66
2022-11-07T13:52:54.331Z,15.73
2022-11-07T13:55:25.496Z,15.74
2022-11-07T13:58:06.899Z,15.82
2022-11-07T14:00:34.806Z,15.68
2022-11-07T14:03:01.548Z,15.75
2022-11-07T14:05:33.082Z,15.75
2022-11-07T14:08:12.464Z,15.72
2022-11-07T14:10:49.116Z,15.76
2022-11-07T14:13:39.665Z,15.78
2022-11-07T14:16:23.656Z,15.73
2022-11-07T14:19:27.823Z,15.87
2022-11-07T14:21:55.658Z,15.79
2022-11-07T14:24:28.032Z,15.73
2022-11-07T14:27:07.401Z,15.78
2022-11-07T14:29:34.078Z,15.74
2022-11-07T14:32:02.710Z,15.66
2022-11-07T14:34:29.348Z,15.69
2022-11-07T14:37:01.110Z,15.66
2022-11-07T14:39:30.148Z,15.64
2022-11-07T14:41:58.890Z,15.64
2022-11-07T14:44:53.876Z,15.63
2022-11-07T14:47:25.352Z,15.65
2022-11-07T14:49:53.006Z,15.61
2022-11-07T14:52:25.274Z,15.55
2022-11-07T14:55:20.673Z,15.56
2022-11-07T14:57:47.717Z,15.53
2022-11-07T15:00:17.208Z,15.37
2022-11-07T15:02:47.404Z,15.43
2022-11-07T15:05:27.916Z,15.40
2022-11-07T15:07:56.226Z,15.34
2022-11-07T15:10:30.095Z,15.30
2022-11-07T15:13:03.034Z,15.20
2022-11-07T15:15:32.467Z,15.13
2022-11-07T15:18:07.064Z,15.13
2022-11-07T15:20:36.607Z,15.09
2022-11-07T15:23:28.102Z,15.14
2022-11-07T15:26:11.481Z,15.12
2022-11-07T15:28:51.348Z,15.10
2022-11-07T15:31:29.698Z,15.02
2022-11-07T15:33:58.650Z,15.03
2022-11-07T15:36:25.833Z,15.04
2022-11-07T15:38:54.025Z,15.02
2022-11-07T15:41:20.961Z,15.02
2022-11-07T15:43:47.434Z,15.01
2022-11-07T15:46:51.367Z,14.92
2022-11-07T15:49:38.526Z,14.80
2022-11-07T15:52:10.538Z,14.65
2022-11-07T15:54:50.018Z,15.08
2022-11-07T15:57:20.685Z,14.91
2022-11-07T15:59:54.561Z,14.60
2022-11-07T16:02:33.288Z,14.88
2022-11-07T16:05:00.522Z,14.86
2022-11-07T16:07:29.320Z,14.95
2022-11-07T16:10:07.542Z,14.92
2022-11-07T16:12:42.755Z,14.74
2022-11-07T16:15:16.918Z,14.70
2022-11-07T16:17:47.721Z,15.25
2022-11-07T16:20:26.048Z,15.28
2022-11-07T16:22:56.574Z,14.80
2022-11-07T16:25:26.180Z,15.20
2022-11-07T16:27:56.569Z,14.72
2022-11-07T16:30:25.897Z,15.03
2022-11-07T16:33:01.945Z,15.03
2022-11-07T16:35:37.603Z,14.91
2022-11-07T16:38:19.320Z,15.10
2022-11-07T16:41:06.496Z,15.39
2022-11-07T16:43:38.368Z,15.15
2022-11-07T16:46:05.649Z,15.21
2022-11-07T16:48:32.288Z,15.29
2022-11-07T16:50:58.711Z,15.34
2022-11-07T16:53:25.916Z,15.40
2022-11-07T16:56:00.807Z,15.38
2022-11-07T16:58:29.692Z,15.44
2022-11-07T17:00:58.920Z,15.44
2022-11-07T17:03:31.486Z,15.46
2022-11-07T17:06:00.414Z,15.51
2022-11-07T17:08:34.878Z,15.50
2022-11-07T17:11:01.272Z,15.53
2022-11-07T17:13:27.641Z,15.57
2022-11-07T17:15:54.789Z,15.52
2022-11-07T17:18:23.538Z,15.57
2022-11-07T17:20:51.955Z,15.58
2022-11-07T17:23:19.722Z,15.59
2022-11-07T17:25:50.772Z,15.62
2022-11-07T17:28:17.630Z,15.56
2022-11-07T17:30:44.285Z,15.61
2022-11-07T17:33:10.813Z,15.58
2022-11-07T17:35:37.767Z,15.55
2022-11-07T17:38:04.244Z,15.66
2022-11-07T17:40:32.534Z,15.62
2022-11-07T17:42:59.618Z,15.63
2022-11-07T17:45:27.113Z,15.61
2022-11-07T17:47:53.995Z,15.58
2022-11-07T17:50:21.714Z,15.56
2022-11-07T17:52:48.402Z,15.55
2022-11-07T17:55:15.118Z,15.44
2022-11-07T17:57:43.339Z,15.46
2022-11-07T18:00:19.050Z,15.45
2022-11-07T18:02:47.967Z,15.40
2022-11-07T18:05:17.284Z,15.37
2022-11-07T18:07:44.651Z,15.42
2022-11-07T18:10:15.653Z,15.35
2022-11-07T18:12:43.513Z,15.37
2022-11-07T18:15:13.301Z,15.34
2022-11-07T18:17:40.890Z,15.27
2022-11-07T18:20:09.192Z,15.31
2022-11-07T18:22:37.666Z,15.22
2022-11-07T18:25:08.421Z,15.26
2022-11-07T18:27:34.953Z,15.16
2022-11-07T18:30:02.921Z,15.22
2022-11-07T18:32:34.623Z,15.21
2022-11-07T18:35:04.787Z,15.12
2022-11-07T18:37:31.746Z,15.15
2022-11-07T18:39:58.132Z,15.16
2022-11-07T18:42:24.535Z,15.19
2022-11-07T18:44:51.014Z,15.21
2022-11-07T18:47:17.402Z,15.14
2022-11-07T18:49:44.440Z,15.21
2022-11-07T18:52:10.852Z,15.28
2022-11-07T18:54:37.493Z,15.30
2022-11-07T18:57:03.939Z,15.30
2022-11-07T18:59:30.282Z,15.32
2022-11-07T19:01:56.757Z,15.31
2022-11-07T19:04:23.429Z,15.34
2022-11-07T19:06:57.020Z,15.40
2022-11-07T19:09:25.887Z,15.45
2022-11-07T19:11:52.477Z,15.43
2022-11-07T19:14:19.545Z,15.46
2022-11-07T19:16:46.062Z,15.46
2022-11-07T19:19:12.523Z,15.53
2022-11-07T19:21:43.583Z,15.49
2022-11-07T19:24:10.162Z,15.53
2022-11-07T19:26:38.413Z,15.47
2022-11-07T19:29:05.711Z,15.53
2022-11-07T19:31:34.748Z,15.65
2022-11-07T19:34:01.617Z,15.54
2022-11-07T19:36:28.141Z,15.65
2022-11-07T19:38:54.627Z,15.66
2022-11-07T19:41:21.092Z,15.63
2022-11-07T19:43:50.633Z,15.62
2022-11-07T19:46:22.447Z,15.61
2022-11-07T19:48:49.806Z,15.56
2022-11-07T19:51:22.207Z,15.54
2022-11-07T19:53:57.616Z,15.43
2022-11-07T19:56:26.589Z,15.39
2022-11-07T19:58:54.318Z,15.33
2022-11-07T20:01:25.601Z,15.30
2022-11-07T20:03:53.524Z,15.23
2022-11-07T20:06:22.894Z,15.23
2022-11-07T20:08:49.961Z,15.20
2022-11-07T20:11:21.781Z,15.11
2022-11-07T20:13:48.549Z,15.07
2022-11-07T20:16:15.269Z,14.97
2022-11-07T20:18:42.220Z,14.97
2022-11-07T20:21:13.067Z,14.93
2022-11-07T20:23:41.036Z,14.92
2022-11-07T20:26:13.809Z,14.84
2022-11-07T20:28:40.732Z,14.82
2022-11-07T20:31:37.443Z,14.84
2022-11-07T20:34:07.658Z,14.73
2022-11-07T20:36:34.319Z,14.73
2022-11-07T20:39:01.779Z,14.62
2022-11-07T20:41:28.247Z,14.58
2022-11-07T20:43:55.529Z,14.58
2022-11-07T20:46:22.085Z,14.59
2022-11-07T20:48:48.765Z,14.51
2022-11-07T20:51:19.937Z,14.50
2022-11-07T20:53:50.324Z,14.45
2022-11-07T20:56:18.850Z,14.43
2022-11-07T20:58:46.415Z,14.51
2022-11-07T21:01:21.827Z,14.53
2022-11-07T21:03:48.398Z,14.50
2022-11-07T21:06:15.206Z,14.52
2022-11-07T21:08:44.561Z,14.43
2022-11-07T21:11:12.873Z,14.54
2022-11-07T21:13:40.052Z,14.48
2022-11-07T21:16:06.863Z,14.50
2022-11-07T21:18:33.502Z,14.48
2022-11-07T21:21:12.379Z,14.48
2022-11-07T21:23:39.069Z,14.54
2022-11-07T21:26:08.520Z,14.51
2022-11-07T21:28:36.029Z,14.54
2022-11-07T21:31:05.396Z,14.53
2022-11-07T21:33:32.519Z,14.49
2022-11-07T21:35:58.982Z,14.40
2022-11-07T21:38:25.422Z,14.40
2022-11-07T21:40:52.845Z,14.45
2022-11-07T21:43:19.879Z,14.42
2022-11-07T21:45:46.458Z,14.43
2022-11-07T21:48:12.787Z,14.45
2022-11-07T21:50:45.083Z,14.49
2022-11-07T21:53:12.070Z,14.42
2022-11-07T21:55:38.520Z,14.42
2022-11-07T21:58:04.898Z,14.42
2022-11-07T22:00:35.766Z,14.49
2022-11-07T22:03:03.624Z,14.52
2022-11-07T22:05:30.006Z,14.54
2022-11-07T22:07:56.741Z,14.57
2022-11-07T22:10:23.222Z,14.52
2022-11-07T22:12:51.204Z,14.56
2022-11-07T22:15:17.711Z,14.58
2022-11-07T22:17:44.109Z,14.60
2022-11-07T22:20:11.400Z,14.62
2022-11-07T22:22:37.778Z,14.68
2022-11-07T22:25:04.802Z,14.69
2022-11-07T22:27:31.223Z,14.67
2022-11-07T22:29:57.816Z,14.65
2022-11-07T22:32:24.205Z,14.70
2022-11-07T22:34:50.666Z,14.75
2022-11-07T22:37:17.085Z,14.73
2022-11-07T22:39:43.467Z,14.86
2022-11-07T22:42:09.821Z,14.88
2022-11-07T22:44:36.348Z,14.88
2022-11-07T22:47:02.821Z,14.89
2022-11-07T22:49:29.394Z,14.91
2022-11-07T22:51:55.821Z,14.97
2022-11-07T22:54:22.277Z,14.91
2022-11-07T22:56:48.630Z,14.95
2022-11-07T22:59:15.025Z,14.89
2022-11-07T23:01:42.577Z,15.04
2022-11-07T23:04:13.898Z,15.02
2022-11-07T23:06:40.502Z,15.00
2022-11-07T23:09:07.038Z,15.03
2022-11-07T23:11:51.073Z,15.09
2022-11-07T23:14:20.719Z,15.12
2022-11-07T23:16:50.788Z,15.16
2022-11-07T23:19:19.808Z,15.22
2022-11-07T23:21:46.823Z,15.11
2022-11-07T23:24:13.657Z,15.24
2022-11-07T23:26:40.798Z,15.32
2022-11-07T23:29:19.137Z,15.31
2022-11-07T23:31:47.461Z,15.42
2022-11-07T23:34:14.534Z,15.37
2022-11-07T23:36:43.967Z,15.43
2022-11-07T23:39:16.619Z,15.45
2022-11-07T23:41:43.615Z,15.53
2022-11-07T23:44:11.283Z,15.51
2022-11-07T23:46:56.433Z,15.49
2022-11-07T23:49:41.675Z,15.46
2022-11-07T23:52:08.292Z,15.56
2022-11-07T23:54:52.924Z,15.60
2022-11-07T23:57:20.317Z,15.61
